createdAt,value
2019-05-10T00:01:32.802Z,11.09
2019-05-10T00:04:22.087Z,11.08
2019-05-10T00:07:11.651Z,11.09
2019-05-10T00:09:42.829Z,11.10
2019-05-10T00:12:16.100Z,11.11
2019-05-10T00:14:49.403Z,11.14
2019-05-10T00:17:22.906Z,11.15
2019-05-10T00:19:54.938Z,11.13
2019-05-10T00:22:27.521Z,11.14
2019-05-10T00:25:04.772Z,11.14
2019-05-10T00:27:32.923Z,11.13
2019-05-10T00:30:07.294Z,11.14
2019-05-10T00:32:38.862Z,11.11
2019-05-10T00:35:10.869Z,11.14
2019-05-10T00:37:42.469Z,11.14
2019-05-10T00:40:14.468Z,11.13
2019-05-10T00:42:46.134Z,11.12
2019-05-10T00:45:17.802Z,11.09
2019-05-10T00:47:49.872Z,11.09
2019-05-10T00:50:22.062Z,11.15
2019-05-10T00:52:53.650Z,11.11
2019-05-10T00:55:25.720Z,11.14
2019-05-10T00:57:57.460Z,11.17
2019-05-10T01:00:29.474Z,11.18
2019-05-10T01:03:01.067Z,11.18
2019-05-10T01:05:32.951Z,11.16
2019-05-10T01:08:04.835Z,11.15
2019-05-10T01:10:36.653Z,11.16
2019-05-10T01:13:08.450Z,11.16
2019-05-10T01:15:41.811Z,11.14
2019-05-10T01:18:13.665Z,11.14
2019-05-10T01:20:45.504Z,11.13
2019-05-10T01:23:17.285Z,11.14
2019-05-10T01:25:49.429Z,11.15
2019-05-10T01:28:21.336Z,11.14
2019-05-10T01:30:53.742Z,11.11
2019-05-10T01:33:25.556Z,11.09
2019-05-10T01:35:57.454Z,11.10
2019-05-10T01:38:29.065Z,11.11
2019-05-10T01:41:00.695Z,11.12
2019-05-10T01:43:33.520Z,11.10
2019-05-10T01:46:05.193Z,11.09
2019-05-10T01:48:37.011Z,11.06
2019-05-10T01:51:08.818Z,11.06
2019-05-10T01:53:40.432Z,11.06
2019-05-10T01:56:12.426Z,11.05
2019-05-10T01:58:44.054Z,11.03
2019-05-10T02:01:16.368Z,11.03
2019-05-10T02:03:47.978Z,11.02
2019-05-10T02:06:19.961Z,11.03
2019-05-10T02:08:51.587Z,11.04
2019-05-10T02:11:23.481Z,11.04
2019-05-10T02:13:55.209Z,11.08
2019-05-10T02:16:26.995Z,11.05
2019-05-10T02:18:59.129Z,10.88
2019-05-10T02:21:30.820Z,11.10
2019-05-10T02:24:02.684Z,11.11
2019-05-10T02:26:34.510Z,11.13
2019-05-10T02:29:06.403Z,11.14
2019-05-10T02:31:38.763Z,11.14
2019-05-10T02:34:10.456Z,11.18
2019-05-10T02:36:42.264Z,11.22
2019-05-10T02:39:14.163Z,11.21
2019-05-10T02:41:45.870Z,11.23
2019-05-10T02:44:17.707Z,11.19
2019-05-10T02:46:49.414Z,11.20
2019-05-10T02:49:21.579Z,11.21
2019-05-10T02:51:53.513Z,11.26
2019-05-10T02:54:25.692Z,11.24
2019-05-10T02:56:58.599Z,11.31
2019-05-10T02:59:31.292Z,11.41
2019-05-10T03:02:06.000Z,11.53
2019-05-10T03:04:38.056Z,11.57
2019-05-10T03:07:09.665Z,11.61
2019-05-10T03:09:41.845Z,11.67
2019-05-10T03:12:27.069Z,11.70
2019-05-10T03:15:00.151Z,11.74
2019-05-10T03:17:31.681Z,11.83
2019-05-10T03:20:04.830Z,11.89
2019-05-10T03:22:43.919Z,11.98
2019-05-10T03:25:15.611Z,11.98
2019-05-10T03:27:47.617Z,11.97
2019-05-10T03:30:19.685Z,11.96
2019-05-10T03:32:51.833Z,12.04
2019-05-10T03:35:24.120Z,12.02
2019-05-10T03:37:56.157Z,11.87
2019-05-10T03:40:27.876Z,11.78
2019-05-10T03:42:59.697Z,11.70
2019-05-10T03:45:31.635Z,11.70
2019-05-10T03:48:03.541Z,11.79
2019-05-10T03:50:35.509Z,11.95
2019-05-10T03:53:07.345Z,12.15
2019-05-10T03:55:39.428Z,12.26
2019-05-10T03:58:11.078Z,12.43
2019-05-10T04:00:43.197Z,12.53
2019-05-10T04:03:15.416Z,12.89
2019-05-10T04:05:47.619Z,13.30
2019-05-10T04:08:19.439Z,13.21
2019-05-10T04:10:52.521Z,13.22
2019-05-10T04:13:24.159Z,13.39
2019-05-10T04:15:56.076Z,13.63
2019-05-10T04:18:27.794Z,13.62
2019-05-10T04:20:59.996Z,13.93
2019-05-10T04:23:31.514Z,14.50
2019-05-10T04:26:03.578Z,15.06
2019-05-10T04:28:36.971Z,15.24
2019-05-10T04:31:09.205Z,15.25
2019-05-10T04:33:42.144Z,15.46
2019-05-10T04:36:13.840Z,15.42
2019-05-10T04:38:45.548Z,15.62
2019-05-10T04:41:17.262Z,15.67
2019-05-10T04:43:49.168Z,15.87
2019-05-10T04:46:21.131Z,15.82
2019-05-10T04:48:52.880Z,16.37
2019-05-10T04:51:24.792Z,16.25
2019-05-10T04:53:56.596Z,16.67
2019-05-10T04:56:28.546Z,16.78
2019-05-10T04:59:00.328Z,16.06
2019-05-10T05:01:32.496Z,15.88
2019-05-10T05:04:04.074Z,15.59
2019-05-10T05:06:35.692Z,15.72
2019-05-10T05:09:08.087Z,16.34
2019-05-10T05:11:39.692Z,16.68
2019-05-10T05:14:11.716Z,16.87
2019-05-10T05:16:43.747Z,16.43
2019-05-10T05:19:15.649Z,16.07
2019-05-10T05:21:47.471Z,15.64
2019-05-10T05:24:22.906Z,15.41
2019-05-10T05:26:52.526Z,15.45
2019-05-10T05:29:24.488Z,15.70
2019-05-10T05:32:01.221Z,16.05
2019-05-10T05:34:30.265Z,16.46
2019-05-10T05:37:01.908Z,17.40
2019-05-10T05:39:33.801Z,18.78
2019-05-10T05:42:05.435Z,19.69
2019-05-10T05:44:37.342Z,19.66
2019-05-10T05:47:09.242Z,19.41
2019-05-10T05:49:41.955Z,19.93
2019-05-10T05:52:13.807Z,19.65
2019-05-10T05:54:45.642Z,18.90
2019-05-10T05:57:22.042Z,19.15
2019-05-10T05:59:50.810Z,19.41
2019-05-10T06:02:22.683Z,21.38
2019-05-10T06:04:54.344Z,24.77
2019-05-10T06:07:31.117Z,25.48
2019-05-10T06:09:59.567Z,25.51
2019-05-10T06:12:31.472Z,25.69
2019-05-10T06:15:03.531Z,24.94
2019-05-10T06:17:34.876Z,23.76
2019-05-10T06:20:08.241Z,21.95
2019-05-10T06:22:44.003Z,20.73
2019-05-10T06:25:13.400Z,20.73
2019-05-10T06:27:45.337Z,20.54
2019-05-10T06:30:17.331Z,20.77
2019-05-10T06:32:53.302Z,21.39
2019-05-10T06:35:22.402Z,21.70
2019-05-10T06:37:53.924Z,21.54
2019-05-10T06:40:35.755Z,20.98
2019-05-10T06:42:59.128Z,20.79
2019-05-10T06:45:31.194Z,20.93
2019-05-10T06:48:02.945Z,21.34
2019-05-10T06:50:36.445Z,21.80
2019-05-10T06:53:10.938Z,22.40
2019-05-10T06:55:41.292Z,22.81
2019-05-10T06:58:13.005Z,24.09
2019-05-10T07:00:47.366Z,24.61
2019-05-10T07:03:18.234Z,25.15
2019-05-10T07:05:49.980Z,26.01
2019-05-10T07:08:21.387Z,26.51
2019-05-10T07:10:53.535Z,27.18
2019-05-10T07:13:25.240Z,28.20
2019-05-10T07:15:57.018Z,29.80
2019-05-10T07:18:28.228Z,31.67
2019-05-10T07:21:00.810Z,31.12
2019-05-10T07:23:32.932Z,30.60
2019-05-10T07:26:05.244Z,29.64
2019-05-10T07:28:37.505Z,29.62
2019-05-10T07:31:08.371Z,30.49
2019-05-10T07:33:40.319Z,33.05
2019-05-10T07:36:15.236Z,34.41
2019-05-10T07:38:46.666Z,36.01
2019-05-10T07:41:19.345Z,34.73
2019-05-10T07:43:51.752Z,33.52
2019-05-10T07:46:22.685Z,35.24
2019-05-10T07:48:54.115Z,33.67
2019-05-10T07:51:28.887Z,29.58
2019-05-10T07:54:04.478Z,27.38
2019-05-10T07:56:33.153Z,25.52
2019-05-10T07:59:05.175Z,24.51
2019-05-10T08:01:37.000Z,21.66
2019-05-10T08:04:10.022Z,24.01
2019-05-10T08:06:47.626Z,28.31
2019-05-10T08:09:15.606Z,27.69
2019-05-10T08:11:48.457Z,24.60
2019-05-10T08:14:20.381Z,23.31
2019-05-10T08:16:58.443Z,23.54
2019-05-10T08:19:25.646Z,23.54
2019-05-10T08:22:01.696Z,23.33
2019-05-10T08:24:32.808Z,23.48
2019-05-10T08:27:11.469Z,23.71
2019-05-10T08:29:39.228Z,23.69
2019-05-10T08:32:12.858Z,23.49
2019-05-10T08:34:52.163Z,22.76
2019-05-10T08:37:30.385Z,22.22
2019-05-10T08:39:55.781Z,20.59
2019-05-10T08:42:37.627Z,20.39
2019-05-10T08:45:04.121Z,20.29
2019-05-10T08:47:32.303Z,19.94
2019-05-10T08:50:18.498Z,19.54
2019-05-10T08:52:37.843Z,19.00
2019-05-10T08:55:12.129Z,18.65
2019-05-10T08:57:48.021Z,18.69
2019-05-10T09:00:17.396Z,18.90
2019-05-10T09:02:48.975Z,19.22
2019-05-10T09:05:28.804Z,19.44
2019-05-10T09:07:54.842Z,19.57
2019-05-10T09:10:26.703Z,20.00
2019-05-10T09:12:58.443Z,19.86
2019-05-10T09:15:30.251Z,20.01
2019-05-10T09:18:04.306Z,20.52
2019-05-10T09:20:35.600Z,20.77
2019-05-10T09:23:08.532Z,20.96
2019-05-10T09:25:42.630Z,22.22
2019-05-10T09:28:16.742Z,22.70
2019-05-10T09:30:59.365Z,22.53
2019-05-10T09:33:22.384Z,22.22
2019-05-10T09:35:55.208Z,21.98
2019-05-10T09:38:28.677Z,21.31
2019-05-10T09:41:02.442Z,20.66
2019-05-10T09:43:33.520Z,19.76
2019-05-10T09:46:05.237Z,19.92
2019-05-10T09:48:37.009Z,20.08
2019-05-10T09:51:09.063Z,20.38
2019-05-10T09:53:40.623Z,20.43
2019-05-10T09:56:12.327Z,20.31
2019-05-10T09:58:44.025Z,20.51
2019-05-10T10:01:20.766Z,21.55
2019-05-10T10:03:49.495Z,22.33
2019-05-10T10:06:21.768Z,23.12
2019-05-10T10:08:53.521Z,23.07
2019-05-10T10:11:27.637Z,22.95
2019-05-10T10:14:01.748Z,22.72
2019-05-10T10:16:31.688Z,22.27
2019-05-10T10:19:04.353Z,21.52
2019-05-10T10:21:38.939Z,21.52
2019-05-10T10:24:15.660Z,21.02
2019-05-10T10:26:43.023Z,20.64
2019-05-10T10:29:14.543Z,20.24
2019-05-10T10:31:55.314Z,19.63
2019-05-10T10:34:19.806Z,19.65
2019-05-10T10:36:51.761Z,19.63
2019-05-10T10:39:24.351Z,19.86
2019-05-10T10:41:57.091Z,20.05
2019-05-10T10:44:28.879Z,20.30
2019-05-10T10:47:00.534Z,20.19
2019-05-10T10:49:32.267Z,19.91
2019-05-10T10:52:05.675Z,19.93
2019-05-10T10:54:39.816Z,19.90
2019-05-10T10:57:10.564Z,20.09
2019-05-10T10:59:42.115Z,20.48
2019-05-10T11:02:31.575Z,21.05
2019-05-10T11:04:49.027Z,21.53
2019-05-10T11:07:21.145Z,21.94
2019-05-10T11:09:53.714Z,22.33
2019-05-10T11:12:26.196Z,22.35
2019-05-10T11:14:58.136Z,22.50
2019-05-10T11:17:30.763Z,22.78
2019-05-10T11:20:02.394Z,22.85
2019-05-10T11:22:34.049Z,23.63
2019-05-10T11:25:09.760Z,23.98
2019-05-10T11:27:41.548Z,24.02
2019-05-10T11:30:14.242Z,23.87
2019-05-10T11:32:46.296Z,22.94
2019-05-10T11:35:25.196Z,22.03
2019-05-10T11:37:51.774Z,20.92
2019-05-10T11:40:30.871Z,20.37
2019-05-10T11:42:56.923Z,20.28
2019-05-10T11:45:34.376Z,20.53
2019-05-10T11:48:02.322Z,20.67
2019-05-10T11:50:35.578Z,20.71
2019-05-10T11:53:15.512Z,20.96
2019-05-10T11:55:43.529Z,21.25
2019-05-10T11:58:14.123Z,21.87
2019-05-10T12:00:46.200Z,20.98
2019-05-10T12:03:22.372Z,20.97
2019-05-10T12:05:53.179Z,20.50
2019-05-10T12:08:24.042Z,19.48
2019-05-10T12:13:32.506Z,19.23
2019-05-10T12:16:02.914Z,19.53
2019-05-10T12:18:36.317Z,19.94
2019-05-10T12:21:11.126Z,19.84
2019-05-10T12:23:50.270Z,19.62
2019-05-10T12:26:06.386Z,19.15
2019-05-10T12:27:12.617Z,19.53
2019-05-10T12:28:51.051Z,19.44
2019-05-10T12:31:23.305Z,19.40
2019-05-10T12:33:54.445Z,19.49
2019-05-10T12:36:27.705Z,19.83
2019-05-10T12:39:01.649Z,20.53
2019-05-10T12:41:39.976Z,21.41
2019-05-10T12:44:08.000Z,21.88
2019-05-10T12:46:42.061Z,22.07
2019-05-10T12:49:12.931Z,21.93
2019-05-10T12:51:45.117Z,22.04
2019-05-10T12:54:18.492Z,22.54
2019-05-10T12:56:50.774Z,22.80
2019-05-10T12:59:22.557Z,23.12
2019-05-10T13:01:54.324Z,22.95
2019-05-10T13:04:39.692Z,22.79
2019-05-10T13:06:59.255Z,22.40
2019-05-10T13:09:40.113Z,22.29
2019-05-10T13:12:06.330Z,22.26
2019-05-10T13:14:40.339Z,21.55
2019-05-10T13:17:12.385Z,20.28
2019-05-10T13:19:44.380Z,17.20
2019-05-10T13:22:16.432Z,14.14
2019-05-10T13:24:48.400Z,13.38
2019-05-10T13:27:20.432Z,13.01
2019-05-10T13:29:53.536Z,12.95
2019-05-10T13:32:27.087Z,13.01
2019-05-10T13:34:58.703Z,12.97
2019-05-10T13:37:30.502Z,12.64
2019-05-10T13:40:05.265Z,12.79
2019-05-10T13:42:43.531Z,12.88
2019-05-10T13:45:09.450Z,13.04
2019-05-10T13:47:41.234Z,13.11
2019-05-10T13:50:13.665Z,13.42
2019-05-10T13:52:45.654Z,13.39
2019-05-10T13:55:17.353Z,13.49
2019-05-10T13:57:49.471Z,13.57
2019-05-10T14:00:21.380Z,13.58
2019-05-10T14:02:53.323Z,13.87
2019-05-10T14:05:25.047Z,14.18
2019-05-10T14:07:56.865Z,14.23
2019-05-10T14:10:29.074Z,14.23
2019-05-10T14:13:02.643Z,14.59
2019-05-10T14:15:34.619Z,14.65
2019-05-10T14:18:06.273Z,14.77
2019-05-10T14:20:38.266Z,14.48
2019-05-10T14:23:10.119Z,14.21
2019-05-10T14:25:41.954Z,13.89
2019-05-10T14:28:15.742Z,13.94
2019-05-10T14:30:57.257Z,14.19
2019-05-10T14:33:21.526Z,14.40
2019-05-10T14:35:55.289Z,14.59
2019-05-10T14:38:27.602Z,14.52
2019-05-10T14:41:03.861Z,14.48
2019-05-10T14:43:33.683Z,14.10
2019-05-10T14:46:13.115Z,13.93
2019-05-10T14:48:38.977Z,14.00
2019-05-10T14:51:13.628Z,14.09
2019-05-10T14:53:44.704Z,14.17
2019-05-10T14:56:16.703Z,14.21
2019-05-10T14:58:48.326Z,14.20
2019-05-10T15:01:20.046Z,13.86
2019-05-10T15:03:52.051Z,13.78
2019-05-10T15:06:23.797Z,13.81
2019-05-10T15:08:55.424Z,13.80
2019-05-10T15:11:31.713Z,13.86
2019-05-10T15:14:00.517Z,13.68
2019-05-10T15:16:32.453Z,13.39
2019-05-10T15:19:04.126Z,13.41
2019-05-10T15:21:36.452Z,13.45
2019-05-10T15:24:08.560Z,13.68
2019-05-10T15:26:43.894Z,13.76
2019-05-10T15:29:15.013Z,14.09
2019-05-10T15:31:47.315Z,14.32
2019-05-10T15:34:19.332Z,14.38
2019-05-10T15:36:51.145Z,14.44
2019-05-10T15:39:28.233Z,14.23
2019-05-10T15:41:59.247Z,14.09
2019-05-10T15:44:33.184Z,14.06
2019-05-10T15:47:03.406Z,14.07
2019-05-10T15:49:35.113Z,14.11
2019-05-10T15:52:17.438Z,13.95
2019-05-10T15:57:19.988Z,13.36
2019-05-10T15:59:23.826Z,13.83
2019-05-10T15:59:50.583Z,13.18
2019-05-10T16:02:21.312Z,13.05
2019-05-10T16:04:53.206Z,12.80
2019-05-10T16:07:24.954Z,12.39
2019-05-10T16:09:57.091Z,12.49
2019-05-10T16:12:28.782Z,12.36
2019-05-10T16:15:00.713Z,12.31
2019-05-10T16:17:33.705Z,12.29
2019-05-10T16:20:06.060Z,12.28
2019-05-10T16:22:37.637Z,12.26
2019-05-10T16:25:10.116Z,12.24
2019-05-10T16:27:45.095Z,12.21
2019-05-10T16:30:20.166Z,12.23
2019-05-10T16:32:50.846Z,12.18
2019-05-10T16:35:22.464Z,12.05
2019-05-10T16:37:54.426Z,11.91
2019-05-10T16:40:25.986Z,11.81
2019-05-10T16:42:58.170Z,11.74
2019-05-10T16:45:29.954Z,11.70
2019-05-10T16:48:05.708Z,11.72
2019-05-10T16:50:35.775Z,11.76
2019-05-10T16:53:08.215Z,11.74
2019-05-10T16:55:42.571Z,11.73
2019-05-10T16:58:15.119Z,11.70
2019-05-10T17:00:48.082Z,11.66
2019-05-10T17:03:20.664Z,11.63
2019-05-10T17:05:53.881Z,11.57
2019-05-10T17:08:25.167Z,11.48
2019-05-10T17:10:56.897Z,11.49
2019-05-10T17:13:28.657Z,11.48
2019-05-10T17:16:00.437Z,11.45
2019-05-10T17:18:32.336Z,11.34
2019-05-10T17:21:04.087Z,11.26
2019-05-10T17:23:35.892Z,11.17
2019-05-10T17:26:08.194Z,11.11
2019-05-10T17:28:39.943Z,11.07
2019-05-10T17:31:11.994Z,11.04
2019-05-10T17:33:44.379Z,11.06
2019-05-10T17:36:19.859Z,11.03
2019-05-10T17:38:53.524Z,11.03
2019-05-10T17:41:24.727Z,10.97
2019-05-10T17:43:56.608Z,10.93
2019-05-10T17:46:28.165Z,10.93
2019-05-10T17:49:00.271Z,10.90
2019-05-10T17:51:32.189Z,10.86
2019-05-10T17:54:04.169Z,10.82
2019-05-10T17:56:39.068Z,10.83
2019-05-10T17:59:11.988Z,10.81
2019-05-10T18:01:42.753Z,10.80
2019-05-10T18:04:14.903Z,10.78
2019-05-10T18:06:46.841Z,10.80
2019-05-10T18:09:18.498Z,10.78
2019-05-10T18:11:50.410Z,10.76
2019-05-10T18:14:22.354Z,10.68
2019-05-10T18:16:54.002Z,10.66
2019-05-10T18:19:26.521Z,10.67
2019-05-10T18:22:00.889Z,10.63
2019-05-10T18:24:36.400Z,10.58
2019-05-10T18:27:05.584Z,10.53
2019-05-10T18:29:37.601Z,10.51
2019-05-10T18:32:11.101Z,10.47
2019-05-10T18:34:47.104Z,10.45
2019-05-10T18:37:21.804Z,10.44
2019-05-10T18:39:52.855Z,10.44
2019-05-10T18:42:27.715Z,10.43
2019-05-10T18:44:59.004Z,10.38
2019-05-10T18:47:31.352Z,10.37
2019-05-10T18:50:03.515Z,10.37
2019-05-10T18:52:35.449Z,10.36
2019-05-10T18:55:07.437Z,10.37
2019-05-10T18:57:39.319Z,10.37
2019-05-10T19:00:12.203Z,10.37
2019-05-10T19:02:44.045Z,10.35
2019-05-10T19:05:16.117Z,10.33
2019-05-10T19:08:01.470Z,10.31
2019-05-10T19:10:21.514Z,10.30
2019-05-10T19:13:00.670Z,10.29
2019-05-10T19:15:26.617Z,10.25
2019-05-10T19:17:58.416Z,10.23
2019-05-10T19:20:30.588Z,10.19
2019-05-10T19:23:05.429Z,10.19
2019-05-10T19:25:37.811Z,10.19
2019-05-10T19:28:09.578Z,10.19
2019-05-10T19:30:41.753Z,10.17
2019-05-10T19:33:13.783Z,10.14
2019-05-10T19:35:46.162Z,10.17
2019-05-10T19:38:17.969Z,10.16
2019-05-10T19:40:49.929Z,10.15
2019-05-10T19:43:23.820Z,10.13
2019-05-10T19:45:57.335Z,10.13
2019-05-10T19:48:34.796Z,10.12
2019-05-10T19:51:08.612Z,10.09
2019-05-10T19:53:42.071Z,10.10
2019-05-10T19:56:09.892Z,10.11
2019-05-10T19:58:41.870Z,9.91
2019-05-10T20:01:13.750Z,10.08
2019-05-10T20:03:45.493Z,10.10
2019-05-10T20:06:17.646Z,10.09
2019-05-10T20:08:49.788Z,10.10
2019-05-10T20:11:21.706Z,10.12
2019-05-10T20:13:53.541Z,10.12
2019-05-10T20:16:25.396Z,10.09
2019-05-10T20:18:57.048Z,10.07
2019-05-10T20:21:29.322Z,10.04
2019-05-10T20:24:01.022Z,10.06
2019-05-10T20:26:32.926Z,10.04
2019-05-10T20:29:04.505Z,9.99
2019-05-10T20:31:36.449Z,9.95
2019-05-10T20:34:08.521Z,9.92
2019-05-10T20:36:40.529Z,9.90
2019-05-10T20:39:12.558Z,9.87
2019-05-10T20:41:44.750Z,9.85
2019-05-10T20:44:18.121Z,9.82
2019-05-10T20:46:49.872Z,9.81
2019-05-10T20:49:21.593Z,9.79
2019-05-10T20:51:53.440Z,9.76
2019-05-10T20:54:25.040Z,9.73
2019-05-10T20:56:57.153Z,9.70
2019-05-10T20:59:29.780Z,9.67
2019-05-10T21:02:01.579Z,9.69
2019-05-10T21:04:33.435Z,9.70
2019-05-10T21:07:05.579Z,9.76
2019-05-10T21:09:38.464Z,9.70
2019-05-10T21:12:10.746Z,9.68
2019-05-10T21:14:42.394Z,9.62
2019-05-10T21:17:14.309Z,9.62
2019-05-10T21:19:45.895Z,9.60
2019-05-10T21:22:17.758Z,9.55
2019-05-10T21:24:49.443Z,9.54
2019-05-10T21:27:21.404Z,9.55
2019-05-10T21:29:52.929Z,9.54
2019-05-10T21:32:24.886Z,9.54
2019-05-10T21:34:57.002Z,9.54
2019-05-10T21:37:28.917Z,9.56
2019-05-10T21:40:00.780Z,9.57
2019-05-10T21:42:32.843Z,9.62
2019-05-10T21:45:05.105Z,9.59
2019-05-10T21:47:50.722Z,9.60
2019-05-10T21:50:10.593Z,9.59
2019-05-10T21:52:42.226Z,9.56
2019-05-10T21:55:14.522Z,9.55
2019-05-10T21:57:46.259Z,9.55
2019-05-10T22:00:20.052Z,9.51
2019-05-10T22:02:53.183Z,9.47
2019-05-10T22:05:25.315Z,9.43
2019-05-10T22:07:57.284Z,9.42
2019-05-10T22:10:29.391Z,9.39
2019-05-10T22:13:01.097Z,9.37
2019-05-10T22:15:32.917Z,9.35
2019-05-10T22:18:04.851Z,9.32
2019-05-10T22:20:36.792Z,9.27
2019-05-10T22:23:08.474Z,9.24
2019-05-10T22:25:40.324Z,9.25
2019-05-10T22:28:12.159Z,9.28
2019-05-10T22:30:44.471Z,9.28
2019-05-10T22:33:16.189Z,9.33
2019-05-10T22:35:48.293Z,9.29
2019-05-10T22:38:20.128Z,9.25
2019-05-10T22:40:52.015Z,9.19
2019-05-10T22:43:23.952Z,9.18
2019-05-10T22:45:55.792Z,9.16
2019-05-10T22:48:27.475Z,9.17
2019-05-10T22:50:59.347Z,9.16
2019-05-10T22:53:31.214Z,9.15
2019-05-10T22:56:02.834Z,9.17
2019-05-10T22:58:34.805Z,9.23
2019-05-10T23:01:06.853Z,9.28
2019-05-10T23:03:38.761Z,9.34
2019-05-10T23:06:10.369Z,9.41
2019-05-10T23:08:42.603Z,9.46
2019-05-10T23:11:14.396Z,9.51
2019-05-10T23:13:46.272Z,9.52
2019-05-10T23:16:17.868Z,9.54
2019-05-10T23:18:49.707Z,9.52
2019-05-10T23:21:21.326Z,9.52
2019-05-10T23:23:53.071Z,9.59
2019-05-10T23:26:24.843Z,9.59
2019-05-10T23:28:56.801Z,9.62
2019-05-10T23:31:28.414Z,9.75
2019-05-10T23:34:00.093Z,9.83
2019-05-10T23:36:31.689Z,9.91
2019-05-10T23:39:06.359Z,9.98
2019-05-10T23:41:37.957Z,10.05
2019-05-10T23:44:09.696Z,10.09
2019-05-10T23:46:41.481Z,10.10
2019-05-10T23:49:13.371Z,10.19
2019-05-10T23:51:45.092Z,10.24
2019-05-10T23:54:16.947Z,10.28
2019-05-10T23:56:49.015Z,10.33
2019-05-10T23:59:21.001Z,10.34
